sensor_id;sensor_type;location;lat;lon;timestamp;temperature;humidity
72712;SHT30;60828;40.292;17.998;2022-09-06T00:00:25;22.03;76.55
72712;SHT30;60828;40.292;17.998;2022-09-06T00:02:53;21.95;77.03
72712;SHT30;60828;40.292;17.998;2022-09-06T00:05:19;22.00;76.99
72712;SHT30;60828;40.292;17.998;2022-09-06T00:07:45;22.03;76.77
72712;SHT30;60828;40.292;17.998;2022-09-06T00:10:11;22.02;76.95
72712;SHT30;60828;40.292;17.998;2022-09-06T00:12:37;21.93;77.13
72712;SHT30;60828;40.292;17.998;2022-09-06T00:15:04;21.90;77.26
72712;SHT30;60828;40.292;17.998;2022-09-06T00:17:31;21.95;77.16
72712;SHT30;60828;40.292;17.998;2022-09-06T00:19:57;21.90;77.33
72712;SHT30;60828;40.292;17.998;2022-09-06T00:22:22;21.83;77.69
72712;SHT30;60828;40.292;17.998;2022-09-06T00:24:48;21.93;77.24
72712;SHT30;60828;40.292;17.998;2022-09-06T00:27:13;21.92;77.04
72712;SHT30;60828;40.292;17.998;2022-09-06T00:29:39;21.88;77.04
72712;SHT30;60828;40.292;17.998;2022-09-06T00:32:05;21.89;76.92
72712;SHT30;60828;40.292;17.998;2022-09-06T00:34:30;21.81;77.28
72712;SHT30;60828;40.292;17.998;2022-09-06T00:36:56;21.81;77.24
72712;SHT30;60828;40.292;17.998;2022-09-06T00:39:21;21.81;77.42
72712;SHT30;60828;40.292;17.998;2022-09-06T00:41:47;21.78;77.41
72712;SHT30;60828;40.292;17.998;2022-09-06T00:44:12;21.65;77.53
72712;SHT30;60828;40.292;17.998;2022-09-06T00:46:40;21.63;77.59
72712;SHT30;60828;40.292;17.998;2022-09-06T00:49:15;21.69;77.55
72712;SHT30;60828;40.292;17.998;2022-09-06T00:52:10;21.72;77.56
72712;SHT30;60828;40.292;17.998;2022-09-06T00:54:34;21.69;77.63
72712;SHT30;60828;40.292;17.998;2022-09-06T00:57:00;21.62;77.92
72712;SHT30;60828;40.292;17.998;2022-09-06T00:59:28;21.59;77.90
72712;SHT30;60828;40.292;17.998;2022-09-06T01:01:55;21.58;77.90
72712;SHT30;60828;40.292;17.998;2022-09-06T01:04:21;21.63;77.77
72712;SHT30;60828;40.292;17.998;2022-09-06T01:12:49;21.58;78.10
72712;SHT30;60828;40.292;17.998;2022-09-06T01:19:25;21.48;78.20
72712;SHT30;60828;40.292;17.998;2022-09-06T01:28:29;21.55;78.21
72712;SHT30;60828;40.292;17.998;2022-09-06T01:33:31;21.59;78.18
72712;SHT30;60828;40.292;17.998;2022-09-06T01:36:05;21.57;78.12
72712;SHT30;60828;40.292;17.998;2022-09-06T01:38:33;21.59;78.11
72712;SHT30;60828;40.292;17.998;2022-09-06T01:40:59;21.61;78.04
72712;SHT30;60828;40.292;17.998;2022-09-06T01:43:32;21.63;78.08
72712;SHT30;60828;40.292;17.998;2022-09-06T02:04:57;21.75;78.19
72712;SHT30;60828;40.292;17.998;2022-09-06T02:07:27;21.82;77.93
72712;SHT30;60828;40.292;17.998;2022-09-06T02:10:24;21.79;78.13
72712;SHT30;60828;40.292;17.998;2022-09-06T02:12:53;21.71;78.38
72712;SHT30;60828;40.292;17.998;2022-09-06T02:15:25;21.75;78.13
72712;SHT30;60828;40.292;17.998;2022-09-06T02:18:04;21.71;78.19
72712;SHT30;60828;40.292;17.998;2022-09-06T02:20:32;21.72;78.15
72712;SHT30;60828;40.292;17.998;2022-09-06T02:23:02;21.66;78.10
72712;SHT30;60828;40.292;17.998;2022-09-06T02:25:38;21.66;78.14
72712;SHT30;60828;40.292;17.998;2022-09-06T02:28:04;21.55;78.46
72712;SHT30;60828;40.292;17.998;2022-09-06T02:30:31;21.54;78.60
72712;SHT30;60828;40.292;17.998;2022-09-06T02:33:02;21.62;78.38
72712;SHT30;60828;40.292;17.998;2022-09-06T02:35:28;21.58;78.30
72712;SHT30;60828;40.292;17.998;2022-09-06T02:37:54;21.65;77.91
72712;SHT30;60828;40.292;17.998;2022-09-06T02:40:20;21.59;77.85
72712;SHT30;60828;40.292;17.998;2022-09-06T02:42:46;21.62;77.64
72712;SHT30;60828;40.292;17.998;2022-09-06T02:45:12;21.58;77.74
72712;SHT30;60828;40.292;17.998;2022-09-06T02:47:37;21.48;77.98
72712;SHT30;60828;40.292;17.998;2022-09-06T02:50:03;21.41;78.07
72712;SHT30;60828;40.292;17.998;2022-09-06T02:52:28;21.45;78.08
72712;SHT30;60828;40.292;17.998;2022-09-06T02:54:54;21.45;78.15
72712;SHT30;60828;40.292;17.998;2022-09-06T02:57:19;21.24;78.50
72712;SHT30;60828;40.292;17.998;2022-09-06T02:59:45;21.24;78.48
72712;SHT30;60828;40.292;17.998;2022-09-06T03:02:10;21.19;78.82
72712;SHT30;60828;40.292;17.998;2022-09-06T03:04:36;21.08;79.25
72712;SHT30;60828;40.292;17.998;2022-09-06T03:07:01;21.10;79.15
72712;SHT30;60828;40.292;17.998;2022-09-06T03:09:26;21.03;79.28
72712;SHT30;60828;40.292;17.998;2022-09-06T03:11:52;21.07;79.34
72712;SHT30;60828;40.292;17.998;2022-09-06T03:14:17;21.13;79.27
72712;SHT30;60828;40.292;17.998;2022-09-06T03:16:44;21.13;79.22
72712;SHT30;60828;40.292;17.998;2022-09-06T03:19:09;21.19;79.20
72712;SHT30;60828;40.292;17.998;2022-09-06T03:21:35;21.15;79.32
72712;SHT30;60828;40.292;17.998;2022-09-06T03:24:00;21.11;79.31
72712;SHT30;60828;40.292;17.998;2022-09-06T03:26:25;21.10;79.38
72712;SHT30;60828;40.292;17.998;2022-09-06T03:28:51;21.10;79.54
72712;SHT30;60828;40.292;17.998;2022-09-06T03:31:17;21.07;79.73
72712;SHT30;60828;40.292;17.998;2022-09-06T03:33:42;21.03;79.71
72712;SHT30;60828;40.292;17.998;2022-09-06T03:36:07;21.01;79.89
72712;SHT30;60828;40.292;17.998;2022-09-06T03:38:33;21.01;80.06
72712;SHT30;60828;40.292;17.998;2022-09-06T03:40:58;21.04;79.93
72712;SHT30;60828;40.292;17.998;2022-09-06T03:43:24;21.03;79.69
72712;SHT30;60828;40.292;17.998;2022-09-06T03:45:51;20.99;79.84
72712;SHT30;60828;40.292;17.998;2022-09-06T03:48:17;20.97;79.90
72712;SHT30;60828;40.292;17.998;2022-09-06T03:50:46;21.04;79.61
72712;SHT30;60828;40.292;17.998;2022-09-06T03:53:12;21.00;79.83
72712;SHT30;60828;40.292;17.998;2022-09-06T03:55:37;21.00;79.91
72712;SHT30;60828;40.292;17.998;2022-09-06T03:58:03;21.07;79.84
72712;SHT30;60828;40.292;17.998;2022-09-06T04:00:28;20.99;80.00
72712;SHT30;60828;40.292;17.998;2022-09-06T04:02:53;21.00;80.00
72712;SHT30;60828;40.292;17.998;2022-09-06T04:05:19;21.00;79.86
72712;SHT30;60828;40.292;17.998;2022-09-06T04:07:44;21.04;79.85
72712;SHT30;60828;40.292;17.998;2022-09-06T04:10:09;21.04;80.00
72712;SHT30;60828;40.292;17.998;2022-09-06T04:12:35;21.10;79.94
72712;SHT30;60828;40.292;17.998;2022-09-06T04:15:00;21.04;79.99
72712;SHT30;60828;40.292;17.998;2022-09-06T04:17:25;21.01;80.20
72712;SHT30;60828;40.292;17.998;2022-09-06T04:19:51;21.07;80.03
72712;SHT30;60828;40.292;17.998;2022-09-06T04:22:16;21.03;80.13
72712;SHT30;60828;40.292;17.998;2022-09-06T04:24:41;21.07;79.87
72712;SHT30;60828;40.292;17.998;2022-09-06T04:27:06;21.06;79.95
72712;SHT30;60828;40.292;17.998;2022-09-06T04:29:32;21.07;79.90
72712;SHT30;60828;40.292;17.998;2022-09-06T04:31:57;20.99;79.95
72712;SHT30;60828;40.292;17.998;2022-09-06T04:34:22;20.89;80.07
72712;SHT30;60828;40.292;17.998;2022-09-06T04:36:48;20.96;80.06
72712;SHT30;60828;40.292;17.998;2022-09-06T04:39:13;20.99;80.10
72712;SHT30;60828;40.292;17.998;2022-09-06T04:41:38;20.97;79.89
72712;SHT30;60828;40.292;17.998;2022-09-06T04:44:04;20.97;80.03
72712;SHT30;60828;40.292;17.998;2022-09-06T04:46:29;21.03;79.78
72712;SHT30;60828;40.292;17.998;2022-09-06T04:48:55;21.03;80.00
72712;SHT30;60828;40.292;17.998;2022-09-06T04:51:21;21.06;79.74
72712;SHT30;60828;40.292;17.998;2022-09-06T04:53:47;21.14;79.60
72712;SHT30;60828;40.292;17.998;2022-09-06T04:56:16;21.21;79.30
72712;SHT30;60828;40.292;17.998;2022-09-06T04:58:42;21.32;79.12
72712;SHT30;60828;40.292;17.998;2022-09-06T05:01:08;21.51;78.78
72712;SHT30;60828;40.292;17.998;2022-09-06T05:03:34;21.62;78.46
72712;SHT30;60828;40.292;17.998;2022-09-06T05:06:11;21.75;78.27
72712;SHT30;60828;40.292;17.998;2022-09-06T05:08:38;21.92;77.98
72712;SHT30;60828;40.292;17.998;2022-09-06T05:11:05;22.07;77.82
72712;SHT30;60828;40.292;17.998;2022-09-06T05:13:32;22.23;77.73
72712;SHT30;60828;40.292;17.998;2022-09-06T05:16:02;22.39;77.34
72712;SHT30;60828;40.292;17.998;2022-09-06T05:18:28;22.51;77.28
72712;SHT30;60828;40.292;17.998;2022-09-06T05:20:53;22.65;77.26
72712;SHT30;60828;40.292;17.998;2022-09-06T05:23:20;22.95;76.69
72712;SHT30;60828;40.292;17.998;2022-09-06T05:25:46;23.02;76.51
72712;SHT30;60828;40.292;17.998;2022-09-06T05:28:11;23.31;76.17
72712;SHT30;60828;40.292;17.998;2022-09-06T05:30:37;23.86;74.87
72712;SHT30;60828;40.292;17.998;2022-09-06T05:33:02;24.06;73.84
72712;SHT30;60828;40.292;17.998;2022-09-06T05:35:28;24.26;73.80
72712;SHT30;60828;40.292;17.998;2022-09-06T05:37:53;25.41;71.76
72712;SHT30;60828;40.292;17.998;2022-09-06T05:40:19;27.40;66.51
72712;SHT30;60828;40.292;17.998;2022-09-06T05:42:44;28.78;62.65
72712;SHT30;60828;40.292;17.998;2022-09-06T05:45:10;30.09;59.50
72712;SHT30;60828;40.292;17.998;2022-09-06T05:47:35;32.34;53.79
72712;SHT30;60828;40.292;17.998;2022-09-06T05:50:01;34.37;48.80
72712;SHT30;60828;40.292;17.998;2022-09-06T05:52:27;36.28;44.78
72712;SHT30;60828;40.292;17.998;2022-09-06T05:54:53;37.11;43.15
72712;SHT30;60828;40.292;17.998;2022-09-06T05:57:18;37.79;41.49
72712;SHT30;60828;40.292;17.998;2022-09-06T05:59:43;38.91;40.13
72712;SHT30;60828;40.292;17.998;2022-09-06T06:02:09;38.94;39.45
72712;SHT30;60828;40.292;17.998;2022-09-06T06:04:34;39.86;38.70
72712;SHT30;60828;40.292;17.998;2022-09-06T06:06:59;39.76;38.46
72712;SHT30;60828;40.292;17.998;2022-09-06T06:09:25;38.64;39.67
72712;SHT30;60828;40.292;17.998;2022-09-06T06:11:50;39.08;39.57
72712;SHT30;60828;40.292;17.998;2022-09-06T06:14:16;40.46;38.17
72712;SHT30;60828;40.292;17.998;2022-09-06T06:16:41;40.42;37.81
72712;SHT30;60828;40.292;17.998;2022-09-06T06:19:07;41.55;36.09
72712;SHT30;60828;40.292;17.998;2022-09-06T06:21:32;41.41;36.38
72712;SHT30;60828;40.292;17.998;2022-09-06T06:24:00;42.68;34.70
72712;SHT30;60828;40.292;17.998;2022-09-06T06:26:27;41.54;36.31
72712;SHT30;60828;40.292;17.998;2022-09-06T06:28:53;42.34;35.24
72712;SHT30;60828;40.292;17.998;2022-09-06T06:31:20;43.46;33.87
72712;SHT30;60828;40.292;17.998;2022-09-06T06:33:47;43.26;33.93
72712;SHT30;60828;40.292;17.998;2022-09-06T06:38:39;43.30;33.99
72712;SHT30;60828;40.292;17.998;2022-09-06T06:41:06;43.08;34.23
72712;SHT30;60828;40.292;17.998;2022-09-06T06:43:33;43.10;34.34
72712;SHT30;60828;40.292;17.998;2022-09-06T06:46:16;42.99;34.38
72712;SHT30;60828;40.292;17.998;2022-09-06T06:48:43;42.70;34.77
72712;SHT30;60828;40.292;17.998;2022-09-06T06:51:13;42.90;34.52
72712;SHT30;60828;40.292;17.998;2022-09-06T06:53:39;42.26;35.49
72712;SHT30;60828;40.292;17.998;2022-09-06T06:56:16;42.45;35.13
72712;SHT30;60828;40.292;17.998;2022-09-06T06:58:42;42.62;34.75
72712;SHT30;60828;40.292;17.998;2022-09-06T07:01:07;41.72;35.44
72712;SHT30;60828;40.292;17.998;2022-09-06T07:03:34;42.51;34.79
72712;SHT30;60828;40.292;17.998;2022-09-06T07:06:01;41.93;35.62
72712;SHT30;60828;40.292;17.998;2022-09-06T07:08:27;42.54;34.28
72712;SHT30;60828;40.292;17.998;2022-09-06T07:10:52;42.51;34.27
72712;SHT30;60828;40.292;17.998;2022-09-06T07:13:18;42.82;33.70
72712;SHT30;60828;40.292;17.998;2022-09-06T07:15:43;42.40;34.07
72712;SHT30;60828;40.292;17.998;2022-09-06T07:18:09;43.43;32.53
72712;SHT30;60828;40.292;17.998;2022-09-06T07:20:34;43.42;32.40
72712;SHT30;60828;40.292;17.998;2022-09-06T07:23:00;44.05;31.56
72712;SHT30;60828;40.292;17.998;2022-09-06T07:25:26;43.64;32.15
72712;SHT30;60828;40.292;17.998;2022-09-06T07:27:59;41.78;34.38
72712;SHT30;60828;40.292;17.998;2022-09-06T07:30:27;42.16;34.37
72712;SHT30;60828;40.292;17.998;2022-09-06T07:32:54;41.19;35.41
72712;SHT30;60828;40.292;17.998;2022-09-06T07:35:20;40.93;36.23
72712;SHT30;60828;40.292;17.998;2022-09-06T07:37:55;41.27;36.07
72712;SHT30;60828;40.292;17.998;2022-09-06T07:40:21;42.50;34.45
72712;SHT30;60828;40.292;17.998;2022-09-06T07:42:46;41.00;35.49
72712;SHT30;60828;40.292;17.998;2022-09-06T07:45:12;42.27;33.22
72712;SHT30;60828;40.292;17.998;2022-09-06T07:47:37;42.65;32.75
72712;SHT30;60828;40.292;17.998;2022-09-06T07:50:03;43.08;31.55
72712;SHT30;60828;40.292;17.998;2022-09-06T07:52:29;43.06;31.23
72712;SHT30;60828;40.292;17.998;2022-09-06T07:54:54;41.55;32.74
72712;SHT30;60828;40.292;17.998;2022-09-06T07:57:21;42.67;32.15
72712;SHT30;60828;40.292;17.998;2022-09-06T07:59:47;42.67;31.86
72712;SHT30;60828;40.292;17.998;2022-09-06T08:02:13;42.57;31.82
72712;SHT30;60828;40.292;17.998;2022-09-06T08:04:38;42.27;31.77
72712;SHT30;60828;40.292;17.998;2022-09-06T08:07:06;42.79;31.75
72712;SHT30;60828;40.292;17.998;2022-09-06T08:09:31;43.15;31.13
72712;SHT30;60828;40.292;17.998;2022-09-06T08:11:57;43.06;30.33
72712;SHT30;60828;40.292;17.998;2022-09-06T08:14:22;42.16;32.02
72712;SHT30;60828;40.292;17.998;2022-09-06T08:16:47;41.67;33.36
72712;SHT30;60828;40.292;17.998;2022-09-06T08:19:13;41.89;33.25
72712;SHT30;60828;40.292;17.998;2022-09-06T08:21:38;42.16;32.27
72712;SHT30;60828;40.292;17.998;2022-09-06T08:24:05;42.58;32.56
72712;SHT30;60828;40.292;17.998;2022-09-06T08:26:31;43.43;31.48
72712;SHT30;60828;40.292;17.998;2022-09-06T08:29:00;41.74;32.90
72712;SHT30;60828;40.292;17.998;2022-09-06T08:31:27;42.45;31.47
72712;SHT30;60828;40.292;17.998;2022-09-06T08:33:53;40.46;33.24
72712;SHT30;60828;40.292;17.998;2022-09-06T08:36:18;40.78;33.45
72712;SHT30;60828;40.292;17.998;2022-09-06T08:38:44;40.75;33.58
72712;SHT30;60828;40.292;17.998;2022-09-06T08:44:14;40.29;33.28
72712;SHT30;60828;40.292;17.998;2022-09-06T08:46:33;40.02;33.34
72712;SHT30;60828;40.292;17.998;2022-09-06T08:49:01;41.11;31.82
72712;SHT30;60828;40.292;17.998;2022-09-06T08:53:58;40.48;33.01
72712;SHT30;60828;40.292;17.998;2022-09-06T08:56:25;40.70;32.54
72712;SHT30;60828;40.292;17.998;2022-09-06T08:58:58;41.10;31.36
72712;SHT30;60828;40.292;17.998;2022-09-06T09:01:28;40.51;32.13
72712;SHT30;60828;40.292;17.998;2022-09-06T09:03:56;39.87;31.56
72712;SHT30;60828;40.292;17.998;2022-09-06T09:06:26;39.06;32.47
72712;SHT30;60828;40.292;17.998;2022-09-06T09:11:23;39.64;32.77
72712;SHT30;60828;40.292;17.998;2022-09-06T09:14:11;39.36;33.40
72712;SHT30;60828;40.292;17.998;2022-09-06T09:16:39;39.43;33.80
72712;SHT30;60828;40.292;17.998;2022-09-06T09:19:04;38.79;33.76
72712;SHT30;60828;40.292;17.998;2022-09-06T09:21:32;38.98;32.94
72712;SHT30;60828;40.292;17.998;2022-09-06T09:24:00;39.53;32.93
72712;SHT30;60828;40.292;17.998;2022-09-06T09:26:33;40.21;31.66
72712;SHT30;60828;40.292;17.998;2022-09-06T09:29:12;39.74;32.09
72712;SHT30;60828;40.292;17.998;2022-09-06T09:31:47;39.73;32.06
72712;SHT30;60828;40.292;17.998;2022-09-06T09:34:46;39.84;31.51
72712;SHT30;60828;40.292;17.998;2022-09-06T09:37:11;40.36;30.32
72712;SHT30;60828;40.292;17.998;2022-09-06T09:39:37;40.97;30.88
72712;SHT30;60828;40.292;17.998;2022-09-06T09:42:04;41.11;29.82
72712;SHT30;60828;40.292;17.998;2022-09-06T09:44:31;39.74;30.42
72712;SHT30;60828;40.292;17.998;2022-09-06T09:46:57;40.38;29.65
72712;SHT30;60828;40.292;17.998;2022-09-06T09:54:38;38.34;33.33
72712;SHT30;60828;40.292;17.998;2022-09-06T09:57:08;37.34;34.89
72712;SHT30;60828;40.292;17.998;2022-09-06T09:59:46;36.42;35.53
72712;SHT30;60828;40.292;17.998;2022-09-06T10:02:24;36.51;35.83
72712;SHT30;60828;40.292;17.998;2022-09-06T10:08:00;35.08;37.30
72712;SHT30;60828;40.292;17.998;2022-09-06T10:10:28;35.79;35.61
72712;SHT30;60828;40.292;17.998;2022-09-06T10:15:37;37.45;33.65
72712;SHT30;60828;40.292;17.998;2022-09-06T10:18:03;37.42;33.98
72712;SHT30;60828;40.292;17.998;2022-09-06T10:20:41;36.68;34.99
72712;SHT30;60828;40.292;17.998;2022-09-06T10:23:28;37.04;35.30
72712;SHT30;60828;40.292;17.998;2022-09-06T10:36:34;37.37;33.57
72712;SHT30;60828;40.292;17.998;2022-09-06T10:50:12;35.62;35.53
72712;SHT30;60828;40.292;17.998;2022-09-06T10:52:41;35.97;35.25
72712;SHT30;60828;40.292;17.998;2022-09-06T10:55:13;35.62;34.25
72712;SHT30;60828;40.292;17.998;2022-09-06T10:57:47;35.45;34.68
72712;SHT30;60828;40.292;17.998;2022-09-06T11:00:13;35.33;35.10
72712;SHT30;60828;40.292;17.998;2022-09-06T11:05:31;35.18;34.87
72712;SHT30;60828;40.292;17.998;2022-09-06T11:08:02;35.29;34.26
72712;SHT30;60828;40.292;17.998;2022-09-06T11:18:33;35.38;33.37
72712;SHT30;60828;40.292;17.998;2022-09-06T11:29:19;33.67;35.94
72712;SHT30;60828;40.292;17.998;2022-09-06T11:31:52;34.23;35.73
72712;SHT30;60828;40.292;17.998;2022-09-06T11:34:21;35.16;36.69
72712;SHT30;60828;40.292;17.998;2022-09-06T11:36:49;35.72;33.83
72712;SHT30;60828;40.292;17.998;2022-09-06T11:39:32;36.07;33.74
72712;SHT30;60828;40.292;17.998;2022-09-06T11:41:59;35.50;33.29
72712;SHT30;60828;40.292;17.998;2022-09-06T11:47:37;35.59;33.05
72712;SHT30;60828;40.292;17.998;2022-09-06T11:53:13;36.08;33.54
72712;SHT30;60828;40.292;17.998;2022-09-06T11:55:40;35.90;33.29
72712;SHT30;60828;40.292;17.998;2022-09-06T12:00:46;36.04;33.75
72712;SHT30;60828;40.292;17.998;2022-09-06T12:09:01;35.22;34.91
72712;SHT30;60828;40.292;17.998;2022-09-06T12:24:53;35.19;33.93
72712;SHT30;60828;40.292;17.998;2022-09-06T12:27:33;35.76;34.17
72712;SHT30;60828;40.292;17.998;2022-09-06T12:30:10;35.87;34.74
72712;SHT30;60828;40.292;17.998;2022-09-06T12:35:11;35.98;33.59
72712;SHT30;60828;40.292;17.998;2022-09-06T12:37:59;35.83;33.80
72712;SHT30;60828;40.292;17.998;2022-09-06T12:40:31;35.77;33.36
72712;SHT30;60828;40.292;17.998;2022-09-06T12:42:58;36.12;32.37
72712;SHT30;60828;40.292;17.998;2022-09-06T12:45:25;35.79;33.39
72712;SHT30;60828;40.292;17.998;2022-09-06T12:48:03;35.64;33.91
72712;SHT30;60828;40.292;17.998;2022-09-06T12:50:29;35.29;34.34
72712;SHT30;60828;40.292;17.998;2022-09-06T12:53:00;34.57;34.01
72712;SHT30;60828;40.292;17.998;2022-09-06T12:55:30;34.86;33.93
72712;SHT30;60828;40.292;17.998;2022-09-06T12:57:59;34.97;34.47
72712;SHT30;60828;40.292;17.998;2022-09-06T13:00:30;35.46;33.42
72712;SHT30;60828;40.292;17.998;2022-09-06T13:05:30;35.09;35.10
72712;SHT30;60828;40.292;17.998;2022-09-06T13:07:59;35.35;35.32
72712;SHT30;60828;40.292;17.998;2022-09-06T13:10:26;34.94;34.90
72712;SHT30;60828;40.292;17.998;2022-09-06T13:12:53;34.63;35.48
72712;SHT30;60828;40.292;17.998;2022-09-06T13:15:24;34.76;35.74
72712;SHT30;60828;40.292;17.998;2022-09-06T13:17:52;34.61;35.51
72712;SHT30;60828;40.292;17.998;2022-09-06T13:20:25;34.35;34.40
72712;SHT30;60828;40.292;17.998;2022-09-06T13:22:51;34.78;33.16
72712;SHT30;60828;40.292;17.998;2022-09-06T13:27:45;34.88;33.21
72712;SHT30;60828;40.292;17.998;2022-09-06T13:32:57;34.94;33.23
72712;SHT30;60828;40.292;17.998;2022-09-06T13:35:28;34.84;34.99
72712;SHT30;60828;40.292;17.998;2022-09-06T13:38:32;35.04;33.08
72712;SHT30;60828;40.292;17.998;2022-09-06T13:40:59;35.24;33.44
72712;SHT30;60828;40.292;17.998;2022-09-06T13:43:26;34.78;34.82
72712;SHT30;60828;40.292;17.998;2022-09-06T13:46:08;34.12;35.44
72712;SHT30;60828;40.292;17.998;2022-09-06T13:48:35;34.40;34.16
72712;SHT30;60828;40.292;17.998;2022-09-06T13:51:05;34.64;34.94
72712;SHT30;60828;40.292;17.998;2022-09-06T13:53:31;33.99;36.06
72712;SHT30;60828;40.292;17.998;2022-09-06T13:55:57;33.92;35.84
72712;SHT30;60828;40.292;17.998;2022-09-06T13:58:23;34.23;35.71
72712;SHT30;60828;40.292;17.998;2022-09-06T14:00:50;34.72;34.96
72712;SHT30;60828;40.292;17.998;2022-09-06T14:03:27;34.53;35.94
72712;SHT30;60828;40.292;17.998;2022-09-06T14:05:53;34.13;34.56
72712;SHT30;60828;40.292;17.998;2022-09-06T14:08:19;34.19;33.83
72712;SHT30;60828;40.292;17.998;2022-09-06T14:10:45;34.46;33.67
72712;SHT30;60828;40.292;17.998;2022-09-06T14:13:14;34.68;36.78
72712;SHT30;60828;40.292;17.998;2022-09-06T14:15:39;33.91;37.98
72712;SHT30;60828;40.292;17.998;2022-09-06T14:18:05;34.19;37.64
72712;SHT30;60828;40.292;17.998;2022-09-06T14:20:31;33.59;38.57
72712;SHT30;60828;40.292;17.998;2022-09-06T14:22:56;33.26;40.21
72712;SHT30;60828;40.292;17.998;2022-09-06T14:25:22;32.95;39.48
72712;SHT30;60828;40.292;17.998;2022-09-06T14:27:47;32.69;40.14
72712;SHT30;60828;40.292;17.998;2022-09-06T14:30:13;32.61;41.56
72712;SHT30;60828;40.292;17.998;2022-09-06T14:32:39;32.93;41.48
72712;SHT30;60828;40.292;17.998;2022-09-06T14:35:05;32.84;39.51
72712;SHT30;60828;40.292;17.998;2022-09-06T14:37:31;32.61;39.84
72712;SHT30;60828;40.292;17.998;2022-09-06T14:39:57;32.46;40.68
72712;SHT30;60828;40.292;17.998;2022-09-06T14:42:23;32.45;41.89
72712;SHT30;60828;40.292;17.998;2022-09-06T14:44:49;32.49;43.68
72712;SHT30;60828;40.292;17.998;2022-09-06T14:47:15;32.55;43.81
72712;SHT30;60828;40.292;17.998;2022-09-06T14:49:41;32.27;44.11
72712;SHT30;60828;40.292;17.998;2022-09-06T14:52:06;32.14;45.19
72712;SHT30;60828;40.292;17.998;2022-09-06T14:54:32;32.21;45.33
72712;SHT30;60828;40.292;17.998;2022-09-06T14:56:58;32.64;43.72
72712;SHT30;60828;40.292;17.998;2022-09-06T14:59:24;32.10;45.62
72712;SHT30;60828;40.292;17.998;2022-09-06T15:01:49;32.14;46.55
72712;SHT30;60828;40.292;17.998;2022-09-06T15:04:15;31.89;47.02
72712;SHT30;60828;40.292;17.998;2022-09-06T15:06:40;31.87;46.83
72712;SHT30;60828;40.292;17.998;2022-09-06T15:09:14;31.66;45.57
72712;SHT30;60828;40.292;17.998;2022-09-06T15:11:45;31.67;47.98
72712;SHT30;60828;40.292;17.998;2022-09-06T15:14:20;31.62;47.72
72712;SHT30;60828;40.292;17.998;2022-09-06T15:16:47;31.67;45.57
72712;SHT30;60828;40.292;17.998;2022-09-06T15:19:13;31.66;46.27
72712;SHT30;60828;40.292;17.998;2022-09-06T15:21:39;31.54;46.82
72712;SHT30;60828;40.292;17.998;2022-09-06T15:24:05;31.31;47.46
72712;SHT30;60828;40.292;17.998;2022-09-06T15:26:31;31.25;47.21
72712;SHT30;60828;40.292;17.998;2022-09-06T15:28:57;31.24;46.74
72712;SHT30;60828;40.292;17.998;2022-09-06T15:31:23;31.01;47.03
72712;SHT30;60828;40.292;17.998;2022-09-06T15:33:49;30.90;47.40
72712;SHT30;60828;40.292;17.998;2022-09-06T15:36:15;30.92;47.08
72712;SHT30;60828;40.292;17.998;2022-09-06T15:38:45;31.08;47.20
72712;SHT30;60828;40.292;17.998;2022-09-06T15:41:20;31.31;46.85
72712;SHT30;60828;40.292;17.998;2022-09-06T15:43:48;31.15;46.38
72712;SHT30;60828;40.292;17.998;2022-09-06T15:46:16;30.86;47.45
72712;SHT30;60828;40.292;17.998;2022-09-06T15:48:47;30.67;46.82
72712;SHT30;60828;40.292;17.998;2022-09-06T15:51:16;30.47;46.08
72712;SHT30;60828;40.292;17.998;2022-09-06T15:53:42;30.36;46.34
72712;SHT30;60828;40.292;17.998;2022-09-06T15:56:09;30.23;46.11
72712;SHT30;60828;40.292;17.998;2022-09-06T15:58:37;30.39;45.47
72712;SHT30;60828;40.292;17.998;2022-09-06T16:01:06;30.36;45.62
72712;SHT30;60828;40.292;17.998;2022-09-06T16:03:37;30.46;43.73
72712;SHT30;60828;40.292;17.998;2022-09-06T16:06:08;30.55;43.18
72712;SHT30;60828;40.292;17.998;2022-09-06T16:08:34;30.64;43.46
72712;SHT30;60828;40.292;17.998;2022-09-06T16:11:05;30.49;44.40
72712;SHT30;60828;40.292;17.998;2022-09-06T16:13:32;30.55;44.06
72712;SHT30;60828;40.292;17.998;2022-09-06T16:15:59;30.44;44.43
72712;SHT30;60828;40.292;17.998;2022-09-06T16:18:25;30.35;44.69
72712;SHT30;60828;40.292;17.998;2022-09-06T16:20:51;30.32;44.45
72712;SHT30;60828;40.292;17.998;2022-09-06T16:23:17;30.05;45.57
72712;SHT30;60828;40.292;17.998;2022-09-06T16:25:47;29.92;45.73
72712;SHT30;60828;40.292;17.998;2022-09-06T16:28:14;29.67;46.13
72712;SHT30;60828;40.292;17.998;2022-09-06T16:30:42;29.44;46.88
72712;SHT30;60828;40.292;17.998;2022-09-06T16:33:09;29.31;47.59
72712;SHT30;60828;40.292;17.998;2022-09-06T16:35:41;29.25;48.39
72712;SHT30;60828;40.292;17.998;2022-09-06T16:38:08;29.12;49.69
72712;SHT30;60828;40.292;17.998;2022-09-06T16:40:35;28.96;49.59
72712;SHT30;60828;40.292;17.998;2022-09-06T16:43:01;28.96;48.99
72712;SHT30;60828;40.292;17.998;2022-09-06T16:45:28;28.92;48.54
72712;SHT30;60828;40.292;17.998;2022-09-06T16:47:54;28.87;48.10
72712;SHT30;60828;40.292;17.998;2022-09-06T16:50:19;28.91;48.41
72712;SHT30;60828;40.292;17.998;2022-09-06T16:52:45;28.83;48.80
72712;SHT30;60828;40.292;17.998;2022-09-06T16:55:10;28.69;49.20
72712;SHT30;60828;40.292;17.998;2022-09-06T16:57:37;28.62;49.41
72712;SHT30;60828;40.292;17.998;2022-09-06T17:00:04;28.45;49.93
72712;SHT30;60828;40.292;17.998;2022-09-06T17:02:29;28.41;50.35
72712;SHT30;60828;40.292;17.998;2022-09-06T17:04:55;28.47;50.01
72712;SHT30;60828;40.292;17.998;2022-09-06T17:07:20;28.30;50.30
72712;SHT30;60828;40.292;17.998;2022-09-06T17:09:46;28.17;50.86
72712;SHT30;60828;40.292;17.998;2022-09-06T17:12:12;28.10;51.09
72712;SHT30;60828;40.292;17.998;2022-09-06T17:14:37;27.96;51.42
72712;SHT30;60828;40.292;17.998;2022-09-06T17:17:03;27.97;51.60
72712;SHT30;60828;40.292;17.998;2022-09-06T17:19:32;27.89;51.86
72712;SHT30;60828;40.292;17.998;2022-09-06T17:21:58;27.95;51.59
72712;SHT30;60828;40.292;17.998;2022-09-06T17:24:23;27.79;51.35
72712;SHT30;60828;40.292;17.998;2022-09-06T17:26:50;27.70;51.24
72712;SHT30;60828;40.292;17.998;2022-09-06T17:29:15;27.62;51.41
72712;SHT30;60828;40.292;17.998;2022-09-06T17:31:41;27.62;51.38
72712;SHT30;60828;40.292;17.998;2022-09-06T17:34:07;27.58;51.37
72712;SHT30;60828;40.292;17.998;2022-09-06T17:36:34;27.40;52.00